createdAt,value
2024-04-14T00:02:17.766Z,4.20
2024-04-14T00:04:53.571Z,5.40
2024-04-14T00:07:22.812Z,5.00
2024-04-14T00:09:51.378Z,5.20
2024-04-14T00:12:19.853Z,5.00
2024-04-14T00:14:48.520Z,5.80
2024-04-14T00:17:17.029Z,5.90
2024-04-14T00:19:45.494Z,6.70
2024-04-14T00:22:14.794Z,6.00
2024-04-14T00:24:43.211Z,6.20
2024-04-14T00:27:11.714Z,6.00
2024-04-14T00:29:40.394Z,6.30
2024-04-14T00:32:08.869Z,5.70
2024-04-14T00:34:37.379Z,5.60
2024-04-14T00:37:06.950Z,5.10
2024-04-14T00:39:35.451Z,5.60
2024-04-14T00:42:04.101Z,5.40
2024-04-14T00:44:32.628Z,5.60
2024-04-14T00:47:02.710Z,5.70
2024-04-14T00:49:31.949Z,6.20
2024-04-14T00:52:03.964Z,5.70
2024-04-14T00:54:33.637Z,4.80
2024-04-14T00:57:06.768Z,5.70
2024-04-14T00:59:35.597Z,6.20
2024-04-14T01:02:07.333Z,5.70
2024-04-14T01:04:36.488Z,5.70
2024-04-14T01:07:05.604Z,5.80
2024-04-14T01:09:34.423Z,6.90
2024-04-14T01:12:03.260Z,6.20
2024-04-14T01:14:31.998Z,6.10
2024-04-14T01:17:00.910Z,6.20
2024-04-14T01:19:29.707Z,6.20
2024-04-14T01:21:58.412Z,6.30
2024-04-14T01:24:27.102Z,7.80
2024-04-14T01:26:55.550Z,8.50
2024-04-14T01:29:23.983Z,8.20
2024-04-14T01:31:52.395Z,7.50
2024-04-14T01:34:21.864Z,7.10
2024-04-14T01:36:50.723Z,8.00
2024-04-14T01:39:20.099Z,7.60
2024-04-14T01:41:48.564Z,8.80
2024-04-14T01:44:16.918Z,7.70
2024-04-14T01:46:45.398Z,8.20
2024-04-14T01:49:14.626Z,8.20
2024-04-14T01:51:43.289Z,8.00
2024-04-14T01:54:12.857Z,7.30
2024-04-14T01:56:41.352Z,8.00
2024-04-14T01:59:10.018Z,8.10
2024-04-14T02:01:38.624Z,8.00
2024-04-14T02:04:07.471Z,8.60
2024-04-14T02:06:36.015Z,7.30
2024-04-14T02:09:04.607Z,9.10
2024-04-14T02:11:33.128Z,8.50
2024-04-14T02:14:02.574Z,8.50
2024-04-14T02:16:30.997Z,9.10
2024-04-14T02:18:59.386Z,8.50
2024-04-14T02:21:28.052Z,9.40
2024-04-14T02:23:56.976Z,8.00
2024-04-14T02:26:25.369Z,8.30
2024-04-14T02:28:53.746Z,9.00
2024-04-14T02:31:22.458Z,8.40
2024-04-14T02:33:50.963Z,9.20
2024-04-14T02:36:20.796Z,8.60
2024-04-14T02:38:49.901Z,9.30
2024-04-14T02:41:18.135Z,8.60
2024-04-14T02:43:46.499Z,8.40
2024-04-14T02:46:15.068Z,8.80
2024-04-14T02:48:50.702Z,9.00
2024-04-14T02:51:20.731Z,8.10
2024-04-14T02:53:49.211Z,8.80
2024-04-14T02:56:18.035Z,8.00
2024-04-14T02:58:46.783Z,8.30
2024-04-14T03:01:17.605Z,8.50
2024-04-14T03:03:46.752Z,8.70
2024-04-14T03:06:17.538Z,9.40
2024-04-14T03:08:46.174Z,8.50
2024-04-14T03:11:14.609Z,9.20
2024-04-14T03:13:42.872Z,8.70
2024-04-14T03:16:11.141Z,9.30
2024-04-14T03:18:40.626Z,9.50
2024-04-14T03:21:08.942Z,9.60
2024-04-14T03:23:39.182Z,9.90
2024-04-14T03:26:07.604Z,9.70
2024-04-14T03:28:36.041Z,9.60
2024-04-14T03:31:05.027Z,9.20
2024-04-14T03:33:34.098Z,8.80
2024-04-14T03:36:07.654Z,9.10
2024-04-14T03:38:36.189Z,9.20
2024-04-14T03:41:04.896Z,9.20
2024-04-14T03:43:33.529Z,9.80
2024-04-14T03:46:02.030Z,9.00
2024-04-14T03:48:30.518Z,10.30
2024-04-14T03:50:59.540Z,9.70
2024-04-14T03:53:27.855Z,9.60
2024-04-14T03:55:56.319Z,9.10
2024-04-14T03:58:24.646Z,9.10
2024-04-14T04:00:53.279Z,9.70
2024-04-14T04:03:21.772Z,10.00
2024-04-14T04:05:56.405Z,13.10
2024-04-14T04:08:25.296Z,10.00
2024-04-14T04:11:04.738Z,9.50
2024-04-14T04:13:33.858Z,10.50
2024-04-14T04:16:05.470Z,11.10
2024-04-14T04:18:35.232Z,10.60
2024-04-14T04:21:08.508Z,11.40
2024-04-14T04:23:36.795Z,10.70
2024-04-14T04:26:05.279Z,10.40
2024-04-14T04:28:34.459Z,11.10
2024-04-14T04:31:13.252Z,10.80
2024-04-14T04:33:43.051Z,10.10
2024-04-14T04:36:13.930Z,10.00
2024-04-14T04:38:45.173Z,9.90
2024-04-14T04:41:13.802Z,9.20
2024-04-14T04:43:44.435Z,9.90
2024-04-14T04:46:13.078Z,10.60
2024-04-14T04:48:42.147Z,9.60
2024-04-14T04:51:10.645Z,9.90
2024-04-14T04:53:39.889Z,10.10
2024-04-14T04:56:08.330Z,14.90
2024-04-14T04:58:41.998Z,11.00
2024-04-14T05:01:19.163Z,9.50
2024-04-14T05:03:48.190Z,9.10
2024-04-14T05:06:17.423Z,21.80
2024-04-14T05:08:45.756Z,11.90
2024-04-14T05:11:14.341Z,9.60
2024-04-14T05:13:43.016Z,10.10
2024-04-14T05:16:13.020Z,9.30
2024-04-14T05:18:41.897Z,9.90
2024-04-14T05:21:10.810Z,8.90
2024-04-14T05:23:39.561Z,8.70
2024-04-14T05:26:07.978Z,13.40
2024-04-14T05:28:36.515Z,11.70
2024-04-14T05:31:05.324Z,9.00
2024-04-14T05:33:33.854Z,9.50
2024-04-14T05:36:02.179Z,9.40
2024-04-14T05:38:32.818Z,9.20
2024-04-14T05:41:03.264Z,9.20
2024-04-14T05:43:31.871Z,9.00
2024-04-14T05:46:00.396Z,9.00
2024-04-14T05:48:29.227Z,9.30
2024-04-14T05:50:59.338Z,9.90
2024-04-14T05:53:29.362Z,9.60
2024-04-14T05:55:58.429Z,8.30
2024-04-14T05:58:26.981Z,9.60
2024-04-14T06:00:57.386Z,8.40
2024-04-14T06:03:27.281Z,8.50
2024-04-14T06:05:55.883Z,9.90
2024-04-14T06:08:24.443Z,8.80
2024-04-14T06:10:53.154Z,9.50
2024-04-14T06:13:23.478Z,8.80
2024-04-14T06:15:52.165Z,8.50
2024-04-14T06:18:20.678Z,8.70
2024-04-14T06:20:49.188Z,8.30
2024-04-14T06:23:21.123Z,10.40
2024-04-14T06:25:50.153Z,9.20
2024-04-14T06:28:18.477Z,9.80
2024-04-14T06:30:47.116Z,10.20
2024-04-14T06:33:15.978Z,13.40
2024-04-14T06:35:44.412Z,9.80
2024-04-14T06:38:12.722Z,8.90
2024-04-14T06:40:41.420Z,7.80
2024-04-14T06:43:09.954Z,8.50
2024-04-14T06:45:39.266Z,8.80
2024-04-14T06:48:08.347Z,8.70
2024-04-14T06:50:36.847Z,7.80
2024-04-14T06:53:05.324Z,8.20
2024-04-14T06:55:35.988Z,8.40
2024-04-14T06:58:05.088Z,7.70
2024-04-14T07:00:34.741Z,7.90
2024-04-14T07:03:03.355Z,8.30
2024-04-14T07:05:31.762Z,7.60
2024-04-14T07:08:00.333Z,7.20
2024-04-14T07:10:28.772Z,7.10
2024-04-14T07:12:57.274Z,7.60
2024-04-14T07:15:26.165Z,7.60
2024-04-14T07:17:54.700Z,9.30
2024-04-14T07:20:23.459Z,9.00
2024-04-14T07:22:51.938Z,9.30
2024-04-14T07:25:20.639Z,7.60
2024-04-14T07:27:49.261Z,9.20
2024-04-14T07:30:17.997Z,7.50
2024-04-14T07:32:46.854Z,9.90
2024-04-14T07:35:16.185Z,7.60
2024-04-14T07:37:44.587Z,8.10
2024-04-14T07:40:15.803Z,8.20
2024-04-14T07:42:44.492Z,8.00
2024-04-14T07:45:12.840Z,8.50
2024-04-14T07:47:44.231Z,6.60
2024-04-14T07:50:14.267Z,7.00
2024-04-14T07:52:42.699Z,5.70
2024-04-14T07:55:11.494Z,7.10
2024-04-14T07:57:41.476Z,6.50
2024-04-14T08:00:13.167Z,7.40
2024-04-14T08:02:43.305Z,6.90
2024-04-14T08:05:12.049Z,6.50
2024-04-14T08:07:41.034Z,6.80
2024-04-14T08:10:09.669Z,6.80
2024-04-14T08:12:38.503Z,8.70
2024-04-14T08:15:07.396Z,9.10
2024-04-14T08:17:35.977Z,9.30
2024-04-14T08:20:05.026Z,6.90
2024-04-14T08:22:33.706Z,6.60
2024-04-14T08:25:06.307Z,6.40
2024-04-14T08:27:34.952Z,6.50
2024-04-14T08:30:03.747Z,5.90
2024-04-14T08:32:32.326Z,5.30
2024-04-14T08:35:00.932Z,5.00
2024-04-14T08:37:29.503Z,5.40
2024-04-14T08:39:59.084Z,7.30
2024-04-14T08:42:30.105Z,6.00
2024-04-14T08:45:01.490Z,5.20
2024-04-14T08:47:32.039Z,4.70
2024-04-14T08:50:03.954Z,4.10
2024-04-14T08:52:36.459Z,4.50
2024-04-14T08:55:05.634Z,4.10
2024-04-14T08:57:34.391Z,4.60
2024-04-14T09:00:03.971Z,3.80
2024-04-14T09:02:32.593Z,3.80
2024-04-14T09:05:01.630Z,4.00
2024-04-14T09:07:30.316Z,3.90
2024-04-14T09:09:59.131Z,3.80
2024-04-14T09:12:29.226Z,3.90
2024-04-14T09:14:58.108Z,5.40
2024-04-14T09:17:26.812Z,3.90
2024-04-14T09:19:56.537Z,2.70
2024-04-14T09:22:25.059Z,3.90
2024-04-14T09:24:53.556Z,2.60
2024-04-14T09:27:23.851Z,3.00
2024-04-14T09:29:54.259Z,2.90
2024-04-14T09:32:24.320Z,3.40
2024-04-14T09:34:52.875Z,2.60
2024-04-14T09:37:21.268Z,2.70
2024-04-14T09:39:52.304Z,2.40
2024-04-14T09:42:21.351Z,1.70
2024-04-14T09:44:51.213Z,2.00
2024-04-14T09:47:22.338Z,1.60
2024-04-14T09:49:52.872Z,2.30
2024-04-14T09:52:30.488Z,1.50
2024-04-14T09:55:12.870Z,1.90
2024-04-14T09:57:50.592Z,2.00
2024-04-14T10:00:19.838Z,2.10
2024-04-14T10:02:58.406Z,2.50
2024-04-14T10:05:28.312Z,2.60
2024-04-14T10:07:57.048Z,2.30
2024-04-14T10:10:28.523Z,2.50
2024-04-14T10:12:57.536Z,3.20
2024-04-14T10:15:26.644Z,2.80
2024-04-14T10:18:20.370Z,2.90
2024-04-14T10:20:49.601Z,2.70
2024-04-14T10:23:20.495Z,2.60
2024-04-14T10:25:50.744Z,2.90
2024-04-14T10:28:23.329Z,3.40
2024-04-14T10:31:02.817Z,2.90
2024-04-14T10:33:32.607Z,3.00
2024-04-14T10:36:06.765Z,3.10
2024-04-14T10:38:35.610Z,2.70
2024-04-14T10:41:05.571Z,3.50
2024-04-14T10:43:35.941Z,3.70
2024-04-14T10:46:04.832Z,3.20
2024-04-14T10:48:34.020Z,2.90
2024-04-14T10:51:04.216Z,9.90
2024-04-14T10:53:34.831Z,3.20
2024-04-14T10:56:03.691Z,2.90
2024-04-14T10:58:35.016Z,3.10
2024-04-14T11:01:11.368Z,2.80
2024-04-14T11:03:43.593Z,2.30
2024-04-14T11:06:18.668Z,2.60
2024-04-14T11:08:48.292Z,2.60
2024-04-14T11:11:18.741Z,2.80
2024-04-14T11:13:50.012Z,5.00
2024-04-14T11:16:21.638Z,2.40
2024-04-14T11:18:52.494Z,2.50
2024-04-14T11:21:35.236Z,2.60
2024-04-14T11:24:11.499Z,2.60
2024-04-14T11:26:42.501Z,2.60
2024-04-14T11:29:11.610Z,2.70
2024-04-14T11:31:40.508Z,3.50
2024-04-14T11:34:12.609Z,2.40
2024-04-14T11:36:42.510Z,2.70
2024-04-14T11:39:12.938Z,2.50
2024-04-14T11:41:41.613Z,2.90
2024-04-14T11:44:10.969Z,2.60
2024-04-14T11:46:41.065Z,2.60
2024-04-14T11:49:20.769Z,2.60
2024-04-14T11:51:52.780Z,2.40
2024-04-14T11:54:21.753Z,2.50
2024-04-14T11:56:52.283Z,2.60
2024-04-14T11:59:21.330Z,2.60
2024-04-14T12:01:49.864Z,3.10
2024-04-14T12:04:18.671Z,2.30
2024-04-14T12:06:47.162Z,2.80
2024-04-14T12:09:15.597Z,2.50
2024-04-14T12:11:44.291Z,7.00
2024-04-14T12:14:12.775Z,2.10
2024-04-14T12:16:42.699Z,2.20
2024-04-14T12:19:12.312Z,2.80
2024-04-14T12:21:41.175Z,2.40
2024-04-14T12:24:12.345Z,2.50
2024-04-14T12:26:44.388Z,3.70
2024-04-14T12:29:19.379Z,3.50
2024-04-14T12:31:51.059Z,3.30
2024-04-14T12:34:19.565Z,3.20
2024-04-14T12:36:48.163Z,3.20
2024-04-14T12:39:23.752Z,3.20
2024-04-14T12:41:56.280Z,3.00
2024-04-14T12:44:24.724Z,3.40
2024-04-14T12:46:54.463Z,2.20
2024-04-14T12:49:26.802Z,2.40
2024-04-14T12:51:59.381Z,2.90
2024-04-14T12:54:29.300Z,2.40
2024-04-14T12:57:00.446Z,2.60
2024-04-14T12:59:29.026Z,2.30
2024-04-14T13:01:57.650Z,2.40
2024-04-14T13:04:30.007Z,2.20
2024-04-14T13:06:59.841Z,1.90
2024-04-14T13:09:28.575Z,1.90
2024-04-14T13:11:58.907Z,3.00
2024-04-14T13:14:36.412Z,2.60
2024-04-14T13:17:05.522Z,2.70
2024-04-14T13:19:35.371Z,2.20
2024-04-14T13:22:04.223Z,2.30
2024-04-14T13:24:34.908Z,2.30
2024-04-14T13:27:04.437Z,2.40
2024-04-14T13:29:36.534Z,2.40
2024-04-14T13:32:06.765Z,2.00
2024-04-14T13:34:35.724Z,2.10
2024-04-14T13:37:08.696Z,1.30
2024-04-14T13:39:37.312Z,1.50
2024-04-14T13:42:06.150Z,1.90
2024-04-14T13:44:37.305Z,1.60
2024-04-14T13:47:13.543Z,2.10
2024-04-14T13:49:41.971Z,2.30
2024-04-14T13:52:16.651Z,2.20
2024-04-14T13:54:55.854Z,2.10
2024-04-14T13:57:28.856Z,2.30
2024-04-14T14:00:01.478Z,2.00
2024-04-14T14:02:30.242Z,1.80
2024-04-14T14:05:05.997Z,2.50
2024-04-14T14:07:36.025Z,2.20
2024-04-14T14:10:05.320Z,1.50
2024-04-14T14:12:34.469Z,2.50
2024-04-14T14:15:06.469Z,2.60
2024-04-14T14:17:36.532Z,2.00
2024-04-14T14:20:10.310Z,2.50
2024-04-14T14:22:45.506Z,2.00
2024-04-14T14:25:15.764Z,2.00
2024-04-14T14:27:47.585Z,2.20
2024-04-14T14:30:17.750Z,2.10
2024-04-14T14:32:46.577Z,1.80
2024-04-14T14:35:33.364Z,1.80
2024-04-14T14:38:03.628Z,1.80
2024-04-14T14:40:32.902Z,2.10
2024-04-14T14:43:02.579Z,2.70
2024-04-14T14:45:31.697Z,2.10
2024-04-14T14:48:00.384Z,2.80
2024-04-14T14:50:31.164Z,3.20
2024-04-14T14:53:03.898Z,2.60
2024-04-14T14:55:36.398Z,2.30
2024-04-14T14:58:06.154Z,3.20
2024-04-14T15:00:34.793Z,2.90
2024-04-14T15:03:03.973Z,2.00
2024-04-14T15:05:32.801Z,1.90
2024-04-14T15:08:07.519Z,3.50
2024-04-14T15:11:26.248Z,3.10
2024-04-14T15:14:07.323Z,3.30
2024-04-14T15:16:39.580Z,3.10
2024-04-14T15:19:12.630Z,2.00
2024-04-14T15:21:43.432Z,2.10
2024-04-14T15:24:21.309Z,2.50
2024-04-14T15:26:54.269Z,1.90
2024-04-14T15:29:27.618Z,1.90
2024-04-14T15:31:57.127Z,2.00
2024-04-14T15:34:30.141Z,2.00
2024-04-14T15:36:59.000Z,2.10
2024-04-14T15:39:28.381Z,3.00
2024-04-14T15:42:01.202Z,3.40
2024-04-14T15:44:30.390Z,2.80
2024-04-14T15:47:01.643Z,1.80
2024-04-14T15:49:30.102Z,1.90
2024-04-14T15:51:59.384Z,2.30
2024-04-14T15:54:28.010Z,2.20
2024-04-14T15:56:58.746Z,2.10
2024-04-14T15:59:33.328Z,2.00
2024-04-14T16:02:07.824Z,2.50
2024-04-14T16:04:37.257Z,2.40
2024-04-14T16:07:05.919Z,1.80
2024-04-14T16:09:35.201Z,2.10
2024-04-14T16:12:09.960Z,2.20
2024-04-14T16:14:46.047Z,2.60
2024-04-14T16:17:22.228Z,1.70
2024-04-14T16:22:19.381Z,1.80
2024-04-14T16:24:48.602Z,2.10
2024-04-14T16:27:17.248Z,1.70
2024-04-14T16:29:48.153Z,1.70
2024-04-14T16:32:18.283Z,2.00
2024-04-14T16:34:48.342Z,2.00
2024-04-14T16:37:17.763Z,2.30
2024-04-14T16:39:46.828Z,2.10
2024-04-14T16:42:15.355Z,2.80
2024-04-14T16:44:43.857Z,2.40
2024-04-14T16:47:13.285Z,2.20
2024-04-14T16:49:43.484Z,2.10
2024-04-14T16:52:13.346Z,2.00
2024-04-14T16:54:45.054Z,1.90
2024-04-14T16:57:13.512Z,2.00
2024-04-14T16:59:42.451Z,2.00
2024-04-14T17:02:10.907Z,2.10
2024-04-14T17:04:41.174Z,1.90
2024-04-14T17:07:13.126Z,2.30
2024-04-14T17:09:41.968Z,1.60
2024-04-14T17:12:12.529Z,2.60
2024-04-14T17:14:45.601Z,3.30
2024-04-14T17:17:17.172Z,2.10
2024-04-14T17:19:46.484Z,2.50
2024-04-14T17:22:15.277Z,2.70
2024-04-14T17:24:45.832Z,2.70
2024-04-14T17:27:15.709Z,2.80
2024-04-14T17:29:44.310Z,2.80
2024-04-14T17:32:13.983Z,2.90
2024-04-14T17:34:45.411Z,2.20
2024-04-14T17:37:15.970Z,2.00
2024-04-14T17:39:45.359Z,1.90
2024-04-14T17:42:16.883Z,1.70
2024-04-14T17:44:47.015Z,2.20
2024-04-14T17:47:15.999Z,2.30
2024-04-14T17:49:45.942Z,1.90
2024-04-14T17:52:14.480Z,1.80
2024-04-14T17:54:43.078Z,2.20
2024-04-14T17:57:11.677Z,2.20
2024-04-14T17:59:41.376Z,2.10
2024-04-14T18:02:10.002Z,2.10
2024-04-14T18:04:42.734Z,2.20
2024-04-14T18:07:12.134Z,1.90
2024-04-14T18:09:48.333Z,2.00
2024-04-14T18:12:22.031Z,1.90
2024-04-14T18:14:50.415Z,1.80
2024-04-14T18:17:28.647Z,2.20
2024-04-14T18:19:57.887Z,2.70
2024-04-14T18:22:26.712Z,1.90
2024-04-14T18:24:59.406Z,2.00
2024-04-14T18:27:29.254Z,1.70
2024-04-14T18:29:57.799Z,2.00
2024-04-14T18:32:26.210Z,3.00
2024-04-14T18:34:55.042Z,2.20
2024-04-14T18:37:23.970Z,2.40
2024-04-14T18:39:53.532Z,1.90
2024-04-14T18:42:22.702Z,2.00
2024-04-14T18:44:51.388Z,1.60
2024-04-14T18:47:19.796Z,2.00
2024-04-14T18:49:48.774Z,2.20
2024-04-14T18:52:18.839Z,2.00
2024-04-14T18:54:47.776Z,2.10
2024-04-14T18:57:20.416Z,2.00
2024-04-14T18:59:50.181Z,1.70
2024-04-14T19:02:18.779Z,1.90
2024-04-14T19:04:48.651Z,2.10
2024-04-14T19:07:18.302Z,2.00
2024-04-14T19:09:47.822Z,2.10
2024-04-14T19:12:19.236Z,2.00
2024-04-14T19:14:51.775Z,2.10
2024-04-14T19:17:22.101Z,1.90
2024-04-14T19:19:50.818Z,2.00
2024-04-14T19:22:25.411Z,2.00
2024-04-14T19:24:55.883Z,1.80
2024-04-14T19:27:24.506Z,1.90
2024-04-14T19:29:54.786Z,1.50
2024-04-14T19:32:23.297Z,2.30
2024-04-14T19:34:51.983Z,2.30
2024-04-14T19:37:20.405Z,1.80
2024-04-14T19:39:51.887Z,1.50
2024-04-14T19:42:20.465Z,1.80
2024-04-14T19:44:48.986Z,1.80
2024-04-14T19:47:19.744Z,1.80
2024-04-14T19:49:48.709Z,2.00
2024-04-14T19:52:17.566Z,2.10
2024-04-14T19:54:53.307Z,2.10
2024-04-14T19:57:24.400Z,1.80
2024-04-14T19:59:54.722Z,1.90
2024-04-14T20:02:24.308Z,1.60
2024-04-14T20:04:53.191Z,2.00
2024-04-14T20:07:22.178Z,1.90
2024-04-14T20:09:53.260Z,2.20
2024-04-14T20:12:21.924Z,2.10
2024-04-14T20:14:50.738Z,1.80
2024-04-14T20:17:19.459Z,1.90
2024-04-14T20:19:48.990Z,2.10
2024-04-14T20:22:19.095Z,1.70
2024-04-14T20:24:53.483Z,2.10
2024-04-14T20:27:31.338Z,1.90
2024-04-14T20:30:07.241Z,2.20
2024-04-14T20:32:36.851Z,2.10
2024-04-14T20:35:05.823Z,2.10
2024-04-14T20:37:36.483Z,2.10
2024-04-14T20:40:07.450Z,2.60
2024-04-14T20:42:36.292Z,2.20
2024-04-14T20:45:06.368Z,1.80
2024-04-14T20:47:35.085Z,1.70
2024-04-14T20:50:05.170Z,2.60
2024-04-14T20:52:34.816Z,2.40
2024-04-14T20:55:04.459Z,2.40
2024-04-14T20:57:33.231Z,2.40
2024-04-14T21:00:04.407Z,2.30
2024-04-14T21:02:35.397Z,2.20
2024-04-14T21:05:11.900Z,2.40
2024-04-14T21:07:43.266Z,2.20
2024-04-14T21:12:45.797Z,2.40
2024-04-14T21:15:14.663Z,2.60
2024-04-14T21:17:43.788Z,2.40
2024-04-14T21:20:13.711Z,2.30
2024-04-14T21:22:47.814Z,2.40
2024-04-14T21:25:17.915Z,2.70
2024-04-14T21:27:47.446Z,2.30
2024-04-14T21:30:17.589Z,2.40
2024-04-14T21:32:47.310Z,2.60
2024-04-14T21:35:23.404Z,2.30
2024-04-14T21:37:52.832Z,2.40
2024-04-14T21:40:21.422Z,2.60
2024-04-14T21:42:52.928Z,2.30
2024-04-14T21:45:22.929Z,2.50
2024-04-14T21:47:52.214Z,2.70
2024-04-14T21:50:21.599Z,2.60
2024-04-14T21:53:02.880Z,2.40
2024-04-14T21:55:32.974Z,2.20
2024-04-14T21:58:01.556Z,2.10
2024-04-14T22:00:32.787Z,2.40
2024-04-14T22:03:09.095Z,2.30
2024-04-14T22:05:59.369Z,2.50
2024-04-14T22:08:29.027Z,2.10
2024-04-14T22:11:00.903Z,2.10
2024-04-14T22:13:33.757Z,3.40
2024-04-14T22:16:09.354Z,2.80
2024-04-14T22:18:49.268Z,2.30
2024-04-14T22:21:20.525Z,4.10
2024-04-14T22:23:53.203Z,6.20
2024-04-14T22:26:21.580Z,5.90
2024-04-14T22:28:52.326Z,5.40
2024-04-14T22:31:20.982Z,3.80
2024-04-14T22:33:50.080Z,4.00
2024-04-14T22:36:21.245Z,3.50
2024-04-14T22:38:55.784Z,3.80
2024-04-14T22:41:31.718Z,4.30
2024-04-14T22:44:02.033Z,4.00
2024-04-14T22:46:30.704Z,4.00
2024-04-14T22:49:01.323Z,4.20
2024-04-14T22:51:30.343Z,3.50
2024-04-14T22:54:07.941Z,3.10
2024-04-14T22:56:37.647Z,2.90
2024-04-14T22:59:07.671Z,1.90
2024-04-14T23:01:44.931Z,1.90
2024-04-14T23:04:13.669Z,2.80
2024-04-14T23:06:48.230Z,2.20
2024-04-14T23:09:18.351Z,2.10
2024-04-14T23:11:47.250Z,2.50
2024-04-14T23:14:17.191Z,2.00
2024-04-14T23:16:48.550Z,1.90
2024-04-14T23:19:29.997Z,1.90
2024-04-14T23:22:02.594Z,1.90
2024-04-14T23:24:35.074Z,2.40
2024-04-14T23:27:08.108Z,2.00
2024-04-14T23:29:38.445Z,2.00
2024-04-14T23:32:16.062Z,1.80
2024-04-14T23:35:38.975Z,2.10
2024-04-14T23:38:14.624Z,1.70
2024-04-14T23:40:43.467Z,2.00
2024-04-14T23:43:12.051Z,2.10
2024-04-14T23:45:42.561Z,2.20
2024-04-14T23:48:11.577Z,1.60
2024-04-14T23:50:44.843Z,2.20
2024-04-14T23:53:15.774Z,1.70
2024-04-14T23:55:48.181Z,1.80
2024-04-14T23:58:26.572Z,2.60
